sensor_id;sensor_type;location;lat;lon;timestamp;temperature;humidity
28175;SHT30;59417;44.788;10.334;2022-12-18T00:00:55;6.85;87.35
28175;SHT30;59417;44.788;10.334;2022-12-18T00:03:21;6.92;87.27
28175;SHT30;59417;44.788;10.334;2022-12-18T00:05:50;6.96;86.89
28175;SHT30;59417;44.788;10.334;2022-12-18T00:08:16;6.99;86.66
28175;SHT30;59417;44.788;10.334;2022-12-18T00:10:43;7.01;86.46
28175;SHT30;59417;44.788;10.334;2022-12-18T00:13:09;7.02;86.14
28175;SHT30;59417;44.788;10.334;2022-12-18T00:15:36;7.12;85.96
28175;SHT30;59417;44.788;10.334;2022-12-18T00:18:03;7.02;86.26
28175;SHT30;59417;44.788;10.334;2022-12-18T00:20:29;7.01;86.17
28175;SHT30;59417;44.788;10.334;2022-12-18T00:22:54;7.01;86.05
28175;SHT30;59417;44.788;10.334;2022-12-18T00:25:21;6.95;86.45
28175;SHT30;59417;44.788;10.334;2022-12-18T00:27:47;6.98;86.38
28175;SHT30;59417;44.788;10.334;2022-12-18T00:30:13;6.94;86.66
28175;SHT30;59417;44.788;10.334;2022-12-18T00:32:39;6.98;86.47
28175;SHT30;59417;44.788;10.334;2022-12-18T00:35:05;7.04;85.97
28175;SHT30;59417;44.788;10.334;2022-12-18T00:37:33;7.01;86.09
28175;SHT30;59417;44.788;10.334;2022-12-18T00:39:59;7.04;86.33
28175;SHT30;59417;44.788;10.334;2022-12-18T00:42:25;7.05;86.13
28175;SHT30;59417;44.788;10.334;2022-12-18T00:45:09;7.08;85.85
28175;SHT30;59417;44.788;10.334;2022-12-18T00:47:35;7.16;85.30
28175;SHT30;59417;44.788;10.334;2022-12-18T00:50:01;7.14;85.45
28175;SHT30;59417;44.788;10.334;2022-12-18T00:52:27;7.15;85.55
28175;SHT30;59417;44.788;10.334;2022-12-18T00:54:52;7.14;85.29
28175;SHT30;59417;44.788;10.334;2022-12-18T00:57:18;7.18;85.43
28175;SHT30;59417;44.788;10.334;2022-12-18T00:59:44;7.16;85.30
28175;SHT30;59417;44.788;10.334;2022-12-18T01:02:10;7.08;85.87
28175;SHT30;59417;44.788;10.334;2022-12-18T01:04:36;7.09;85.76
28175;SHT30;59417;44.788;10.334;2022-12-18T01:07:01;7.08;85.86
28175;SHT30;59417;44.788;10.334;2022-12-18T01:09:27;7.16;85.44
28175;SHT30;59417;44.788;10.334;2022-12-18T01:11:53;7.20;85.25
28175;SHT30;59417;44.788;10.334;2022-12-18T01:14:18;7.11;85.77
28175;SHT30;59417;44.788;10.334;2022-12-18T01:16:44;7.14;85.34
28175;SHT30;59417;44.788;10.334;2022-12-18T01:19:11;7.15;85.16
28175;SHT30;59417;44.788;10.334;2022-12-18T01:21:36;7.06;85.78
28175;SHT30;59417;44.788;10.334;2022-12-18T01:24:03;7.15;85.39
28175;SHT30;59417;44.788;10.334;2022-12-18T01:26:30;7.14;85.45
28175;SHT30;59417;44.788;10.334;2022-12-18T01:28:56;7.05;85.78
28175;SHT30;59417;44.788;10.334;2022-12-18T01:31:25;7.04;86.23
28175;SHT30;59417;44.788;10.334;2022-12-18T01:33:52;7.14;85.72
28175;SHT30;59417;44.788;10.334;2022-12-18T01:36:30;7.16;85.50
28175;SHT30;59417;44.788;10.334;2022-12-18T01:38:58;7.12;85.64
28175;SHT30;59417;44.788;10.334;2022-12-18T01:41:27;7.11;85.98
28175;SHT30;59417;44.788;10.334;2022-12-18T01:50:02;7.18;85.82
28175;SHT30;59417;44.788;10.334;2022-12-18T01:52:31;7.14;86.03
28175;SHT30;59417;44.788;10.334;2022-12-18T01:55:03;7.12;86.01
28175;SHT30;59417;44.788;10.334;2022-12-18T01:57:32;7.15;86.02
28175;SHT30;59417;44.788;10.334;2022-12-18T02:00:08;7.16;86.03
28175;SHT30;59417;44.788;10.334;2022-12-18T02:02:41;7.09;86.36
28175;SHT30;59417;44.788;10.334;2022-12-18T02:05:09;7.12;86.40
28175;SHT30;59417;44.788;10.334;2022-12-18T02:16:30;7.12;86.32
28175;SHT30;59417;44.788;10.334;2022-12-18T02:18:40;7.18;85.95
28175;SHT30;59417;44.788;10.334;2022-12-18T02:21:46;7.08;85.91
28175;SHT30;59417;44.788;10.334;2022-12-18T02:27:18;7.02;85.75
28175;SHT30;59417;44.788;10.334;2022-12-18T02:29:52;6.94;85.86
28175;SHT30;59417;44.788;10.334;2022-12-18T02:32:24;6.94;85.87
28175;SHT30;59417;44.788;10.334;2022-12-18T02:34:56;6.88;86.29
28175;SHT30;59417;44.788;10.334;2022-12-18T02:37:28;6.82;86.32
28175;SHT30;59417;44.788;10.334;2022-12-18T02:40:05;6.77;86.76
28175;SHT30;59417;44.788;10.334;2022-12-18T02:42:35;6.70;86.29
28175;SHT30;59417;44.788;10.334;2022-12-18T02:45:06;6.63;86.44
28175;SHT30;59417;44.788;10.334;2022-12-18T02:47:49;6.54;86.81
28175;SHT30;59417;44.788;10.334;2022-12-18T02:53:20;6.40;86.73
28175;SHT30;59417;44.788;10.334;2022-12-18T03:01:45;5.98;87.99
28175;SHT30;59417;44.788;10.334;2022-12-18T03:04:34;5.75;88.95
28175;SHT30;59417;44.788;10.334;2022-12-18T03:07:11;5.75;89.03
28175;SHT30;59417;44.788;10.334;2022-12-18T03:09:43;5.65;89.13
28175;SHT30;59417;44.788;10.334;2022-12-18T03:12:20;5.71;89.48
28175;SHT30;59417;44.788;10.334;2022-12-18T03:15:21;5.85;88.25
28175;SHT30;59417;44.788;10.334;2022-12-18T03:18:01;5.86;88.02
28175;SHT30;59417;44.788;10.334;2022-12-18T03:20:32;5.90;87.91
28175;SHT30;59417;44.788;10.334;2022-12-18T03:23:15;5.92;87.69
28175;SHT30;59417;44.788;10.334;2022-12-18T03:25:51;5.96;88.02
28175;SHT30;59417;44.788;10.334;2022-12-18T03:28:22;5.82;87.19
28175;SHT30;59417;44.788;10.334;2022-12-18T03:30:58;5.75;87.71
28175;SHT30;59417;44.788;10.334;2022-12-18T03:33:34;5.64;87.89
28175;SHT30;59417;44.788;10.334;2022-12-18T03:36:04;5.67;88.05
28175;SHT30;59417;44.788;10.334;2022-12-18T03:38:31;5.59;88.22
28175;SHT30;59417;44.788;10.334;2022-12-18T03:52:14;5.90;86.52
28175;SHT30;59417;44.788;10.334;2022-12-18T03:54:45;5.98;86.33
28175;SHT30;59417;44.788;10.334;2022-12-18T03:57:20;5.96;86.31
28175;SHT30;59417;44.788;10.334;2022-12-18T03:59:56;5.93;86.21
28175;SHT30;59417;44.788;10.334;2022-12-18T04:02:29;5.92;86.32
28175;SHT30;59417;44.788;10.334;2022-12-18T04:05:05;5.77;86.77
28175;SHT30;59417;44.788;10.334;2022-12-18T04:07:36;5.75;87.01
28175;SHT30;59417;44.788;10.334;2022-12-18T04:10:39;5.65;87.46
28175;SHT30;59417;44.788;10.334;2022-12-18T04:13:05;5.59;87.72
28175;SHT30;59417;44.788;10.334;2022-12-18T04:15:34;5.55;88.12
28175;SHT30;59417;44.788;10.334;2022-12-18T04:18:02;5.67;87.72
28175;SHT30;59417;44.788;10.334;2022-12-18T04:20:36;5.64;87.80
28175;SHT30;59417;44.788;10.334;2022-12-18T04:23:02;5.65;87.94
28175;SHT30;59417;44.788;10.334;2022-12-18T04:25:29;5.69;87.51
28175;SHT30;59417;44.788;10.334;2022-12-18T04:28:05;5.68;87.38
28175;SHT30;59417;44.788;10.334;2022-12-18T04:30:40;5.71;87.19
28175;SHT30;59417;44.788;10.334;2022-12-18T04:33:11;5.75;86.91
28175;SHT30;59417;44.788;10.334;2022-12-18T04:35:39;5.75;87.04
28175;SHT30;59417;44.788;10.334;2022-12-18T04:38:07;5.68;87.21
28175;SHT30;59417;44.788;10.334;2022-12-18T04:40:34;5.62;87.74
28175;SHT30;59417;44.788;10.334;2022-12-18T04:43:05;5.69;87.60
28175;SHT30;59417;44.788;10.334;2022-12-18T04:45:31;5.67;87.58
28175;SHT30;59417;44.788;10.334;2022-12-18T04:48:02;5.68;87.60
28175;SHT30;59417;44.788;10.334;2022-12-18T04:50:31;5.68;87.47
28175;SHT30;59417;44.788;10.334;2022-12-18T04:52:58;5.64;87.77
28175;SHT30;59417;44.788;10.334;2022-12-18T04:55:23;5.67;87.66
28175;SHT30;59417;44.788;10.334;2022-12-18T04:57:49;5.62;88.09
28175;SHT30;59417;44.788;10.334;2022-12-18T05:00:15;5.61;87.99
28175;SHT30;59417;44.788;10.334;2022-12-18T05:02:52;5.62;87.84
28175;SHT30;59417;44.788;10.334;2022-12-18T05:05:22;5.54;88.28
28175;SHT30;59417;44.788;10.334;2022-12-18T05:07:53;5.54;88.36
28175;SHT30;59417;44.788;10.334;2022-12-18T05:10:18;5.58;88.56
28175;SHT30;59417;44.788;10.334;2022-12-18T05:12:44;5.49;88.44
28175;SHT30;59417;44.788;10.334;2022-12-18T05:15:34;5.44;88.71
28175;SHT30;59417;44.788;10.334;2022-12-18T05:18:00;5.47;88.82
28175;SHT30;59417;44.788;10.334;2022-12-18T05:20:29;5.41;89.23
28175;SHT30;59417;44.788;10.334;2022-12-18T05:22:57;5.39;89.22
28175;SHT30;59417;44.788;10.334;2022-12-18T05:25:27;5.41;89.38
28175;SHT30;59417;44.788;10.334;2022-12-18T05:27:57;5.48;89.27
28175;SHT30;59417;44.788;10.334;2022-12-18T05:30:24;5.47;89.40
28175;SHT30;59417;44.788;10.334;2022-12-18T05:32:49;5.32;89.38
28175;SHT30;59417;44.788;10.334;2022-12-18T05:35:19;5.23;90.11
28175;SHT30;59417;44.788;10.334;2022-12-18T05:37:48;5.26;90.16
28175;SHT30;59417;44.788;10.334;2022-12-18T05:40:19;5.21;90.26
28175;SHT30;59417;44.788;10.334;2022-12-18T05:42:45;5.17;90.49
28175;SHT30;59417;44.788;10.334;2022-12-18T05:45:10;5.06;90.78
28175;SHT30;59417;44.788;10.334;2022-12-18T05:47:36;5.17;91.04
28175;SHT30;59417;44.788;10.334;2022-12-18T05:50:02;5.13;90.66
28175;SHT30;59417;44.788;10.334;2022-12-18T05:52:28;5.13;90.49
28175;SHT30;59417;44.788;10.334;2022-12-18T05:54:53;5.13;90.65
28175;SHT30;59417;44.788;10.334;2022-12-18T05:57:19;5.24;90.50
28175;SHT30;59417;44.788;10.334;2022-12-18T05:59:46;5.30;90.68
28175;SHT30;59417;44.788;10.334;2022-12-18T06:02:15;5.32;89.96
28175;SHT30;59417;44.788;10.334;2022-12-18T06:04:44;5.37;89.87
28175;SHT30;59417;44.788;10.334;2022-12-18T06:07:10;5.35;89.86
28175;SHT30;59417;44.788;10.334;2022-12-18T06:09:36;5.13;90.09
28175;SHT30;59417;44.788;10.334;2022-12-18T06:12:03;5.14;90.30
28175;SHT30;59417;44.788;10.334;2022-12-18T06:14:29;5.13;90.49
28175;SHT30;59417;44.788;10.334;2022-12-18T06:16:55;5.17;90.34
28175;SHT30;59417;44.788;10.334;2022-12-18T06:19:21;5.08;90.69
28175;SHT30;59417;44.788;10.334;2022-12-18T06:24:48;4.93;91.98
28175;SHT30;59417;44.788;10.334;2022-12-18T06:27:15;4.94;91.76
28175;SHT30;59417;44.788;10.334;2022-12-18T06:29:41;4.92;91.92
28175;SHT30;59417;44.788;10.334;2022-12-18T06:32:07;5.10;91.30
28175;SHT30;59417;44.788;10.334;2022-12-18T06:34:37;5.10;91.19
28175;SHT30;59417;44.788;10.334;2022-12-18T06:37:04;5.11;91.54
28175;SHT30;59417;44.788;10.334;2022-12-18T06:39:29;5.24;91.31
28175;SHT30;59417;44.788;10.334;2022-12-18T06:41:55;5.27;90.83
28175;SHT30;59417;44.788;10.334;2022-12-18T06:44:21;5.24;90.72
28175;SHT30;59417;44.788;10.334;2022-12-18T06:46:47;5.23;90.97
28175;SHT30;59417;44.788;10.334;2022-12-18T06:49:13;5.28;91.04
28175;SHT30;59417;44.788;10.334;2022-12-18T06:51:39;5.34;91.01
28175;SHT30;59417;44.788;10.334;2022-12-18T06:54:05;5.39;90.92
28175;SHT30;59417;44.788;10.334;2022-12-18T06:56:31;5.47;90.83
28175;SHT30;59417;44.788;10.334;2022-12-18T06:59:00;5.39;90.72
28175;SHT30;59417;44.788;10.334;2022-12-18T07:01:26;5.32;91.20
28175;SHT30;59417;44.788;10.334;2022-12-18T07:03:55;5.45;90.78
28175;SHT30;59417;44.788;10.334;2022-12-18T07:06:24;5.49;90.78
28175;SHT30;59417;44.788;10.334;2022-12-18T07:08:51;5.51;90.93
28175;SHT30;59417;44.788;10.334;2022-12-18T07:11:17;5.54;90.58
28175;SHT30;59417;44.788;10.334;2022-12-18T07:13:44;5.47;90.87
28175;SHT30;59417;44.788;10.334;2022-12-18T07:16:12;5.51;90.78
28175;SHT30;59417;44.788;10.334;2022-12-18T07:18:39;5.45;91.17
28175;SHT30;59417;44.788;10.334;2022-12-18T07:21:09;5.45;91.21
28175;SHT30;59417;44.788;10.334;2022-12-18T07:23:37;5.51;91.14
28175;SHT30;59417;44.788;10.334;2022-12-18T07:26:04;5.48;91.66
28175;SHT30;59417;44.788;10.334;2022-12-18T07:28:31;5.67;91.07
28175;SHT30;59417;44.788;10.334;2022-12-18T07:30:58;5.68;90.75
28175;SHT30;59417;44.788;10.334;2022-12-18T07:33:24;5.67;91.01
28175;SHT30;59417;44.788;10.334;2022-12-18T07:35:50;5.71;90.95
28175;SHT30;59417;44.788;10.334;2022-12-18T07:38:16;5.71;91.09
28175;SHT30;59417;44.788;10.334;2022-12-18T07:40:42;5.82;90.89
28175;SHT30;59417;44.788;10.334;2022-12-18T07:43:07;5.85;90.40
28175;SHT30;59417;44.788;10.334;2022-12-18T07:45:43;5.79;90.46
28175;SHT30;59417;44.788;10.334;2022-12-18T07:48:13;5.77;90.75
28175;SHT30;59417;44.788;10.334;2022-12-18T07:50:42;5.79;91.02
28175;SHT30;59417;44.788;10.334;2022-12-18T07:53:09;5.89;90.92
28175;SHT30;59417;44.788;10.334;2022-12-18T07:55:35;5.96;90.34
28175;SHT30;59417;44.788;10.334;2022-12-18T07:58:03;5.82;90.38
28175;SHT30;59417;44.788;10.334;2022-12-18T08:00:29;5.78;90.94
28175;SHT30;59417;44.788;10.334;2022-12-18T08:02:55;5.79;90.96
28175;SHT30;59417;44.788;10.334;2022-12-18T08:05:21;5.74;91.03
28175;SHT30;59417;44.788;10.334;2022-12-18T08:07:46;5.71;91.29
28175;SHT30;59417;44.788;10.334;2022-12-18T08:10:13;5.67;91.44
28175;SHT30;59417;44.788;10.334;2022-12-18T08:12:39;5.82;91.17
28175;SHT30;59417;44.788;10.334;2022-12-18T08:15:05;5.65;91.24
28175;SHT30;59417;44.788;10.334;2022-12-18T08:17:31;5.68;91.83
28175;SHT30;59417;44.788;10.334;2022-12-18T08:19:57;5.75;91.49
28175;SHT30;59417;44.788;10.334;2022-12-18T08:22:23;5.82;91.77
28175;SHT30;59417;44.788;10.334;2022-12-18T08:24:51;5.95;91.01
28175;SHT30;59417;44.788;10.334;2022-12-18T08:27:18;5.90;91.13
28175;SHT30;59417;44.788;10.334;2022-12-18T08:29:44;5.93;91.65
28175;SHT30;59417;44.788;10.334;2022-12-18T08:32:10;6.05;90.42
28175;SHT30;59417;44.788;10.334;2022-12-18T08:34:36;6.09;90.67
28175;SHT30;59417;44.788;10.334;2022-12-18T08:37:01;6.17;89.90
28175;SHT30;59417;44.788;10.334;2022-12-18T08:39:27;6.14;90.04
28175;SHT30;59417;44.788;10.334;2022-12-18T08:41:53;6.16;89.19
28175;SHT30;59417;44.788;10.334;2022-12-18T08:44:37;6.02;89.96
28175;SHT30;59417;44.788;10.334;2022-12-18T08:47:04;5.93;90.24
28175;SHT30;59417;44.788;10.334;2022-12-18T08:49:30;5.93;90.31
28175;SHT30;59417;44.788;10.334;2022-12-18T08:51:56;5.86;90.25
28175;SHT30;59417;44.788;10.334;2022-12-18T08:54:24;5.85;90.50
28175;SHT30;59417;44.788;10.334;2022-12-18T08:56:50;5.90;89.63
28175;SHT30;59417;44.788;10.334;2022-12-18T08:59:16;5.85;89.78
28175;SHT30;59417;44.788;10.334;2022-12-18T09:01:42;5.86;89.55
28175;SHT30;59417;44.788;10.334;2022-12-18T09:04:12;5.83;89.70
28175;SHT30;59417;44.788;10.334;2022-12-18T09:06:38;5.95;89.35
28175;SHT30;59417;44.788;10.334;2022-12-18T09:09:04;5.95;88.95
28175;SHT30;59417;44.788;10.334;2022-12-18T09:11:31;5.99;88.72
28175;SHT30;59417;44.788;10.334;2022-12-18T09:13:58;6.00;88.66
28175;SHT30;59417;44.788;10.334;2022-12-18T09:16:25;5.96;89.64
28175;SHT30;59417;44.788;10.334;2022-12-18T09:18:54;6.06;89.74
28175;SHT30;59417;44.788;10.334;2022-12-18T09:21:27;6.19;88.18
28175;SHT30;59417;44.788;10.334;2022-12-18T09:23:55;6.09;88.97
28175;SHT30;59417;44.788;10.334;2022-12-18T09:26:22;6.24;89.28
28175;SHT30;59417;44.788;10.334;2022-12-18T09:29:00;6.19;88.90
28175;SHT30;59417;44.788;10.334;2022-12-18T09:31:27;6.27;87.75
28175;SHT30;59417;44.788;10.334;2022-12-18T09:33:55;6.26;88.01
28175;SHT30;59417;44.788;10.334;2022-12-18T09:36:22;6.12;88.89
28175;SHT30;59417;44.788;10.334;2022-12-18T09:38:47;6.19;89.51
28175;SHT30;59417;44.788;10.334;2022-12-18T09:44:44;6.40;88.05
28175;SHT30;59417;44.788;10.334;2022-12-18T09:47:09;6.40;86.60
28175;SHT30;59417;44.788;10.334;2022-12-18T09:49:43;6.44;86.65
28175;SHT30;59417;44.788;10.334;2022-12-18T09:52:21;6.30;86.50
28175;SHT30;59417;44.788;10.334;2022-12-18T09:57:24;6.03;86.65
28175;SHT30;59417;44.788;10.334;2022-12-18T10:00:03;5.99;86.77
28175;SHT30;59417;44.788;10.334;2022-12-18T10:02:47;5.99;87.06
28175;SHT30;59417;44.788;10.334;2022-12-18T10:05:17;6.12;87.07
28175;SHT30;59417;44.788;10.334;2022-12-18T10:10:36;6.21;86.38
28175;SHT30;59417;44.788;10.334;2022-12-18T10:13:42;6.27;85.79
28175;SHT30;59417;44.788;10.334;2022-12-18T10:27:29;6.27;86.80
28175;SHT30;59417;44.788;10.334;2022-12-18T10:30:13;6.37;86.63
28175;SHT30;59417;44.788;10.334;2022-12-18T10:32:43;6.55;85.15
28175;SHT30;59417;44.788;10.334;2022-12-18T10:35:26;6.60;84.36
28175;SHT30;59417;44.788;10.334;2022-12-18T10:44:24;6.06;86.21
28175;SHT30;59417;44.788;10.334;2022-12-18T10:47:05;6.16;86.98
28175;SHT30;59417;44.788;10.334;2022-12-18T10:49:33;6.17;85.97
28175;SHT30;59417;44.788;10.334;2022-12-18T10:52:22;6.02;85.61
28175;SHT30;59417;44.788;10.334;2022-12-18T10:55:04;5.99;85.75
28175;SHT30;59417;44.788;10.334;2022-12-18T10:57:56;5.98;85.80
28175;SHT30;59417;44.788;10.334;2022-12-18T11:00:39;6.00;85.95
28175;SHT30;59417;44.788;10.334;2022-12-18T11:03:33;6.09;86.19
28175;SHT30;59417;44.788;10.334;2022-12-18T11:06:27;6.10;86.10
28175;SHT30;59417;44.788;10.334;2022-12-18T11:09:04;6.19;86.00
28175;SHT30;59417;44.788;10.334;2022-12-18T11:11:32;6.34;85.25
28175;SHT30;59417;44.788;10.334;2022-12-18T11:19:56;6.50;84.33
28175;SHT30;59417;44.788;10.334;2022-12-18T11:22:27;6.54;83.78
28175;SHT30;59417;44.788;10.334;2022-12-18T11:27:39;6.63;82.94
28175;SHT30;59417;44.788;10.334;2022-12-18T11:30:28;6.64;83.19
28175;SHT30;59417;44.788;10.334;2022-12-18T11:35:55;6.54;84.10
28175;SHT30;59417;44.788;10.334;2022-12-18T11:38:23;6.55;83.69
28175;SHT30;59417;44.788;10.334;2022-12-18T11:41:10;6.48;83.67
28175;SHT30;59417;44.788;10.334;2022-12-18T11:43:58;6.55;84.06
28175;SHT30;59417;44.788;10.334;2022-12-18T11:46:47;6.64;83.39
28175;SHT30;59417;44.788;10.334;2022-12-18T11:49:25;6.89;82.80
28175;SHT30;59417;44.788;10.334;2022-12-18T11:52:24;7.27;82.29
28175;SHT30;59417;44.788;10.334;2022-12-18T12:04:46;6.96;81.31
28175;SHT30;59417;44.788;10.334;2022-12-18T12:07:51;6.89;81.66
28175;SHT30;59417;44.788;10.334;2022-12-18T12:23:04;6.82;81.24
28175;SHT30;59417;44.788;10.334;2022-12-18T12:38:41;7.67;79.35
28175;SHT30;59417;44.788;10.334;2022-12-18T12:41:14;7.71;79.39
28175;SHT30;59417;44.788;10.334;2022-12-18T12:44:20;7.83;78.75
28175;SHT30;59417;44.788;10.334;2022-12-18T12:46:48;7.90;79.40
28175;SHT30;59417;44.788;10.334;2022-12-18T12:49:19;8.00;79.07
28175;SHT30;59417;44.788;10.334;2022-12-18T12:51:56;8.12;78.61
28175;SHT30;59417;44.788;10.334;2022-12-18T12:54:25;8.10;78.69
28175;SHT30;59417;44.788;10.334;2022-12-18T12:57:01;7.88;78.84
28175;SHT30;59417;44.788;10.334;2022-12-18T13:02:01;7.59;78.77
28175;SHT30;59417;44.788;10.334;2022-12-18T13:04:44;7.70;78.77
28175;SHT30;59417;44.788;10.334;2022-12-18T13:07:27;7.78;78.68
28175;SHT30;59417;44.788;10.334;2022-12-18T13:13:00;7.86;78.03
28175;SHT30;59417;44.788;10.334;2022-12-18T13:18:22;7.83;78.21
28175;SHT30;59417;44.788;10.334;2022-12-18T13:21:18;8.01;77.56
28175;SHT30;59417;44.788;10.334;2022-12-18T13:23:46;8.10;77.43
28175;SHT30;59417;44.788;10.334;2022-12-18T13:31:16;8.18;76.41
28175;SHT30;59417;44.788;10.334;2022-12-18T13:34:24;8.17;77.23
28175;SHT30;59417;44.788;10.334;2022-12-18T13:36:52;8.22;77.14
28175;SHT30;59417;44.788;10.334;2022-12-18T13:41:50;8.20;77.13
28175;SHT30;59417;44.788;10.334;2022-12-18T13:46:56;8.33;77.56
28175;SHT30;59417;44.788;10.334;2022-12-18T13:51:54;8.59;76.93
28175;SHT30;59417;44.788;10.334;2022-12-18T13:54:32;8.76;76.68
28175;SHT30;59417;44.788;10.334;2022-12-18T13:56:59;8.80;75.95
28175;SHT30;59417;44.788;10.334;2022-12-18T13:59:26;8.83;75.26
28175;SHT30;59417;44.788;10.334;2022-12-18T14:02:00;8.94;75.07
28175;SHT30;59417;44.788;10.334;2022-12-18T14:04:31;8.96;74.35
28175;SHT30;59417;44.788;10.334;2022-12-18T14:07:01;8.79;74.96
28175;SHT30;59417;44.788;10.334;2022-12-18T14:09:35;8.56;75.79
28175;SHT30;59417;44.788;10.334;2022-12-18T14:12:01;8.41;76.09
28175;SHT30;59417;44.788;10.334;2022-12-18T14:14:51;8.29;76.78
28175;SHT30;59417;44.788;10.334;2022-12-18T14:17:17;8.36;76.23
28175;SHT30;59417;44.788;10.334;2022-12-18T14:19:52;8.36;75.95
28175;SHT30;59417;44.788;10.334;2022-12-18T14:22:23;8.21;76.76
28175;SHT30;59417;44.788;10.334;2022-12-18T14:25:14;8.21;77.07
28175;SHT30;59417;44.788;10.334;2022-12-18T14:27:50;8.26;76.94
28175;SHT30;59417;44.788;10.334;2022-12-18T14:35:38;8.26;77.43
28175;SHT30;59417;44.788;10.334;2022-12-18T14:38:25;8.28;76.70
28175;SHT30;59417;44.788;10.334;2022-12-18T14:40:56;8.31;76.63
28175;SHT30;59417;44.788;10.334;2022-12-18T14:43:23;8.18;76.83
28175;SHT30;59417;44.788;10.334;2022-12-18T14:45:50;8.11;77.20
28175;SHT30;59417;44.788;10.334;2022-12-18T14:48:41;8.12;77.49
28175;SHT30;59417;44.788;10.334;2022-12-18T14:51:20;8.08;77.77
28175;SHT30;59417;44.788;10.334;2022-12-18T14:53:58;8.08;77.79
28175;SHT30;59417;44.788;10.334;2022-12-18T14:56:29;8.00;78.36
28175;SHT30;59417;44.788;10.334;2022-12-18T14:58:58;7.97;78.68
28175;SHT30;59417;44.788;10.334;2022-12-18T15:01:34;7.95;78.36
28175;SHT30;59417;44.788;10.334;2022-12-18T15:04:01;8.01;78.30
28175;SHT30;59417;44.788;10.334;2022-12-18T15:06:37;7.98;78.81
28175;SHT30;59417;44.788;10.334;2022-12-18T15:09:25;7.93;79.09
28175;SHT30;59417;44.788;10.334;2022-12-18T15:12:02;7.90;79.19
28175;SHT30;59417;44.788;10.334;2022-12-18T15:14:52;7.84;79.27
28175;SHT30;59417;44.788;10.334;2022-12-18T15:17:21;7.81;79.51
28175;SHT30;59417;44.788;10.334;2022-12-18T15:19:50;7.80;79.95
28175;SHT30;59417;44.788;10.334;2022-12-18T15:22:33;7.77;80.30
28175;SHT30;59417;44.788;10.334;2022-12-18T15:25:01;7.71;80.55
28175;SHT30;59417;44.788;10.334;2022-12-18T15:32:38;7.64;80.75
28175;SHT30;59417;44.788;10.334;2022-12-18T15:37:39;7.64;81.31
28175;SHT30;59417;44.788;10.334;2022-12-18T15:40:05;7.50;81.86
28175;SHT30;59417;44.788;10.334;2022-12-18T15:42:31;7.61;81.23
28175;SHT30;59417;44.788;10.334;2022-12-18T15:45:15;7.43;81.78
28175;SHT30;59417;44.788;10.334;2022-12-18T15:47:41;7.36;82.08
28175;SHT30;59417;44.788;10.334;2022-12-18T15:50:08;7.35;82.20
28175;SHT30;59417;44.788;10.334;2022-12-18T15:52:53;7.18;82.67
28175;SHT30;59417;44.788;10.334;2022-12-18T15:55:24;7.11;82.81
28175;SHT30;59417;44.788;10.334;2022-12-18T15:58:09;7.08;83.05
28175;SHT30;59417;44.788;10.334;2022-12-18T16:00:38;7.05;83.26
28175;SHT30;59417;44.788;10.334;2022-12-18T16:03:05;6.99;83.20
28175;SHT30;59417;44.788;10.334;2022-12-18T16:05:32;6.91;83.88
28175;SHT30;59417;44.788;10.334;2022-12-18T16:07:57;7.01;82.98
28175;SHT30;59417;44.788;10.334;2022-12-18T16:10:24;6.89;83.65
28175;SHT30;59417;44.788;10.334;2022-12-18T16:12:50;6.88;83.79
28175;SHT30;59417;44.788;10.334;2022-12-18T16:15:16;6.94;83.10
28175;SHT30;59417;44.788;10.334;2022-12-18T16:17:43;6.99;82.82
28175;SHT30;59417;44.788;10.334;2022-12-18T16:20:13;6.88;82.99
28175;SHT30;59417;44.788;10.334;2022-12-18T16:22:41;6.85;82.82
28175;SHT30;59417;44.788;10.334;2022-12-18T16:25:15;6.81;83.03
28175;SHT30;59417;44.788;10.334;2022-12-18T16:27:41;6.81;83.00
28175;SHT30;59417;44.788;10.334;2022-12-18T16:30:12;6.89;82.75
28175;SHT30;59417;44.788;10.334;2022-12-18T16:32:38;6.89;82.55
28175;SHT30;59417;44.788;10.334;2022-12-18T16:35:05;6.89;81.94
28175;SHT30;59417;44.788;10.334;2022-12-18T16:37:32;6.78;82.17
28175;SHT30;59417;44.788;10.334;2022-12-18T16:39:58;6.78;82.42
28175;SHT30;59417;44.788;10.334;2022-12-18T16:42:24;6.82;82.20
28175;SHT30;59417;44.788;10.334;2022-12-18T16:44:49;6.78;82.69
28175;SHT30;59417;44.788;10.334;2022-12-18T16:47:16;6.63;83.17
28175;SHT30;59417;44.788;10.334;2022-12-18T16:49:43;6.60;82.77
28175;SHT30;59417;44.788;10.334;2022-12-18T16:52:12;6.64;83.18
28175;SHT30;59417;44.788;10.334;2022-12-18T16:54:38;6.63;83.23
28175;SHT30;59417;44.788;10.334;2022-12-18T16:57:04;6.57;83.50
28175;SHT30;59417;44.788;10.334;2022-12-18T16:59:30;6.74;83.18
28175;SHT30;59417;44.788;10.334;2022-12-18T17:01:59;6.74;83.08
28175;SHT30;59417;44.788;10.334;2022-12-18T17:04:25;6.65;83.43
28175;SHT30;59417;44.788;10.334;2022-12-18T17:06:51;6.63;83.59
28175;SHT30;59417;44.788;10.334;2022-12-18T17:09:19;6.60;83.67
28175;SHT30;59417;44.788;10.334;2022-12-18T17:11:49;6.87;82.63
28175;SHT30;59417;44.788;10.334;2022-12-18T17:14:21;6.77;82.83
28175;SHT30;59417;44.788;10.334;2022-12-18T17:16:47;6.80;82.85
28175;SHT30;59417;44.788;10.334;2022-12-18T17:19:14;6.74;83.25
28175;SHT30;59417;44.788;10.334;2022-12-18T17:21:42;6.68;83.53
28175;SHT30;59417;44.788;10.334;2022-12-18T17:24:08;6.55;84.29
28175;SHT30;59417;44.788;10.334;2022-12-18T17:26:34;6.61;84.22
28175;SHT30;59417;44.788;10.334;2022-12-18T17:35:34;6.23;85.50
28175;SHT30;59417;44.788;10.334;2022-12-18T17:38:01;6.27;85.85
28175;SHT30;59417;44.788;10.334;2022-12-18T17:40:38;6.40;85.32
28175;SHT30;59417;44.788;10.334;2022-12-18T17:43:13;6.36;85.51
28175;SHT30;59417;44.788;10.334;2022-12-18T17:45:42;6.17;85.65
28175;SHT30;59417;44.788;10.334;2022-12-18T17:48:09;6.20;86.09
28175;SHT30;59417;44.788;10.334;2022-12-18T17:50:35;6.20;86.48
28175;SHT30;59417;44.788;10.334;2022-12-18T17:53:01;6.31;85.91
28175;SHT30;59417;44.788;10.334;2022-12-18T17:55:30;6.36;85.53
28175;SHT30;59417;44.788;10.334;2022-12-18T17:58:05;6.38;85.59
28175;SHT30;59417;44.788;10.334;2022-12-18T18:00:31;6.34;85.46
28175;SHT30;59417;44.788;10.334;2022-12-18T18:02:57;6.33;85.80
28175;SHT30;59417;44.788;10.334;2022-12-18T18:05:26;6.31;85.32
28175;SHT30;59417;44.788;10.334;2022-12-18T18:07:52;6.34;85.78
28175;SHT30;59417;44.788;10.334;2022-12-18T18:10:19;6.24;85.64
28175;SHT30;59417;44.788;10.334;2022-12-18T18:12:45;6.31;85.91
28175;SHT30;59417;44.788;10.334;2022-12-18T18:15:40;6.43;85.40
28175;SHT30;59417;44.788;10.334;2022-12-18T18:18:06;6.43;85.47
28175;SHT30;59417;44.788;10.334;2022-12-18T18:20:38;6.41;85.07
28175;SHT30;59417;44.788;10.334;2022-12-18T18:23:05;6.41;85.83
28175;SHT30;59417;44.788;10.334;2022-12-18T18:25:35;6.51;85.04
28175;SHT30;59417;44.788;10.334;2022-12-18T18:28:03;6.44;84.75